Time;durP1;ratioP1;P1;durP2;ratioP2;P2;SDS_P1;SDS_P2;PMS_P1;PMS_P2;Temp;Humidity;BMP_temperature;BMP_pressure;BME280_temperature;BME280_humidity;BME280_pressure;Samples;Min_cycle;Max_cycle;Signal;HPM_P1;HPM_P2
2023/03/02 00:01:44;;;;;;;3.37;3.07;;;15.80;55.10;16.40;101457.00;;;;5027336;28;20198;-44
2023/03/02 00:04:43;;;;;;;3.50;3.20;;;15.70;55.10;16.40;101459.00;;;;5027419;28;20764;-44
2023/03/02 00:07:10;;;;;;;3.17;2.93;;;15.70;55.20;16.40;101469.00;;;;5028840;28;20191;-45
2023/03/02 00:09:36;;;;;;;3.90;3.50;;;15.70;55.20;16.30;101469.00;;;;5027536;28;20233;-45
2023/03/02 00:12:02;;;;;;;3.30;3.00;;;15.60;55.20;16.30;101471.00;;;;5028515;28;20546;-44
2023/03/02 00:14:27;;;;;;;3.53;3.23;;;15.70;55.30;16.30;101479.00;;;;5028416;28;20185;-44
2023/03/02 00:16:53;;;;;;;3.50;3.20;;;15.60;55.30;16.30;101466.00;;;;5028544;28;20666;-44
2023/03/02 00:19:20;;;;;;;3.47;3.17;;;15.60;55.30;16.30;101462.00;;;;5034944;28;20182;-44
2023/03/02 00:21:46;;;;;;;3.73;3.43;;;15.60;55.30;16.30;101464.00;;;;5030334;28;20203;-44
2023/03/02 00:24:14;;;;;;;3.60;3.30;;;15.60;55.30;16.20;101459.00;;;;5028245;28;20652;-44
2023/03/02 00:26:40;;;;;;;3.40;3.10;;;15.60;55.20;16.20;101460.00;;;;5028864;28;20214;-43
2023/03/02 00:29:05;;;;;;;3.57;3.27;;;15.60;55.30;16.20;101448.00;;;;5028625;28;20175;-45
2023/03/02 00:31:31;;;;;;;3.60;3.30;;;15.50;55.20;16.20;101455.00;;;;5028534;28;20182;-44
2023/03/02 00:33:57;;;;;;;3.67;3.20;;;15.50;55.40;16.20;101446.00;;;;5028616;28;20174;-44
2023/03/02 00:36:23;;;;;;;3.40;3.10;;;15.50;55.40;16.10;101450.00;;;;5028230;28;20207;-44
2023/03/02 00:38:50;;;;;;;3.20;2.90;;;15.50;55.50;16.10;101442.00;;;;5028347;28;20186;-45
2023/03/02 00:41:16;;;;;;;3.57;3.27;;;15.50;55.50;16.10;101445.00;;;;5028125;28;20740;-44
2023/03/02 00:43:42;;;;;;;3.40;3.10;;;15.40;55.50;16.10;101445.00;;;;5029130;28;20270;-44
2023/03/02 00:46:17;;;;;;;3.37;3.07;;;15.40;55.50;16.10;101437.00;;;;5029587;28;20272;-44
2023/03/02 00:48:43;;;;;;;3.40;3.10;;;15.40;55.50;16.00;101441.00;;;;5028150;28;20217;-44
2023/03/02 00:51:08;;;;;;;3.17;2.97;;;15.40;55.50;16.00;101433.00;;;;5027041;28;20226;-44
2023/03/02 00:53:34;;;;;;;3.10;2.90;;;15.40;55.50;16.00;101430.00;;;;5028627;28;20178;-44
2023/03/02 00:56:01;;;;;;;3.40;3.10;;;15.40;55.50;16.00;101442.00;;;;5028228;28;20197;-44
2023/03/02 00:58:27;;;;;;;3.60;3.30;;;15.30;55.50;15.80;101444.00;;;;5028360;28;20559;-44
2023/03/02 01:00:53;;;;;;;4.20;3.13;;;15.30;55.60;16.00;101435.00;;;;5028235;28;20202;-44
2023/03/02 01:03:18;;;;;;;3.33;3.03;;;15.30;55.60;16.00;101444.00;;;;5028131;28;20240;-44
2023/03/02 01:05:44;;;;;;;3.23;2.93;;;15.30;55.60;15.90;101446.00;;;;5028102;28;20262;-44
2023/03/02 01:08:10;;;;;;;3.20;2.90;;;15.20;55.60;15.90;101441.00;;;;5032736;28;20792;-45
2023/03/02 01:10:37;;;;;;;3.27;2.97;;;15.20;55.90;15.90;101432.00;;;;5034717;28;20700;-47
2023/03/02 01:13:03;;;;;;;2.80;2.60;;;15.20;55.70;15.90;101430.00;;;;5022243;28;20175;-44
2023/03/02 01:15:28;;;;;;;4.53;3.10;;;15.20;55.70;15.90;101438.00;;;;5028942;28;20665;-44
2023/03/02 01:17:54;;;;;;;3.10;2.90;;;15.20;55.80;15.80;101438.00;;;;5027035;28;20237;-44
2023/03/02 01:20:20;;;;;;;4.27;3.20;;;15.20;55.80;15.80;101434.00;;;;5027568;28;20195;-44
2023/03/02 01:22:46;;;;;;;3.20;2.90;;;15.10;55.70;15.80;101414.00;;;;5028087;28;20689;-44
2023/03/02 01:25:12;;;;;;;3.20;2.90;;;15.10;55.80;15.80;101415.00;;;;5027897;28;20272;-44
2023/03/02 01:27:37;;;;;;;2.90;2.70;;;15.10;55.80;15.80;101402.00;;;;5027929;28;20214;-44
2023/03/02 01:30:04;;;;;;;3.53;2.80;;;15.10;55.90;15.80;101401.00;;;;5027982;28;20179;-44
2023/03/02 01:32:30;;;;;;;3.30;3.00;;;15.10;55.90;15.80;101395.00;;;;5027950;28;20253;-44
2023/03/02 01:34:55;;;;;;;3.50;3.20;;;15.10;55.90;15.80;101388.00;;;;5028152;28;20723;-44
2023/03/02 01:37:21;;;;;;;3.73;3.10;;;15.10;55.90;15.80;101399.00;;;;5030871;28;20199;-44
2023/03/02 01:39:48;;;;;;;3.17;2.97;;;15.10;55.90;15.80;101392.00;;;;5031476;28;20179;-43
2023/03/02 01:42:15;;;;;;;3.17;2.90;;;15.10;55.80;15.80;101388.00;;;;5031147;28;20249;-44
2023/03/02 01:44:45;;;;;;;3.40;3.10;;;15.10;55.90;15.80;101383.00;;;;5029722;28;20178;-44
2023/03/02 01:47:13;;;;;;;2.97;2.77;;;15.10;55.90;15.70;101375.00;;;;5030890;28;20171;-44
2023/03/02 01:49:47;;;;;;;2.70;2.50;;;15.00;55.80;15.70;101382.00;;;;5031049;28;20646;-44
2023/03/02 01:52:12;;;;;;;3.40;3.10;;;15.00;55.80;15.70;101369.00;;;;5029737;28;20258;-44
2023/03/02 01:54:39;;;;;;;3.00;2.80;;;15.00;55.80;15.70;101375.00;;;;5030238;28;20733;-44
2023/03/02 01:57:05;;;;;;;3.33;3.03;;;15.00;55.80;15.70;101372.00;;;;5031400;28;20262;-44
2023/03/02 01:59:31;;;;;;;2.90;2.70;;;15.00;55.80;15.70;101374.00;;;;5029364;28;20258;-44
2023/03/02 02:01:59;;;;;;;3.20;2.70;;;15.00;55.70;15.70;101373.00;;;;5030880;28;20218;-45
2023/03/02 02:04:25;;;;;;;3.27;2.97;;;14.90;55.60;15.70;101376.00;;;;5029511;28;20186;-44
2023/03/02 02:07:02;;;;;;;3.10;2.90;;;14.90;55.60;15.70;101378.00;;;;5031741;28;20210;-44
2023/03/02 02:09:29;;;;;;;3.17;2.87;;;14.90;55.60;15.60;101370.00;;;;5030882;28;20194;-44
2023/03/02 02:11:55;;;;;;;3.27;3.00;;;14.90;55.70;15.60;101379.00;;;;5027946;28;20270;-44
2023/03/02 02:14:21;;;;;;;3.27;2.97;;;14.90;56.30;15.60;101374.00;;;;5031322;28;20174;-43
2023/03/02 02:16:47;;;;;;;3.37;3.07;;;14.90;55.60;15.60;101376.00;;;;5029820;28;20680;-43
2023/03/02 02:19:42;;;;;;;3.20;2.90;;;14.90;55.70;15.60;101378.00;;;;5029420;28;20186;-45
2023/03/02 02:22:11;;;;;;;2.90;2.70;;;14.80;55.60;15.50;101374.00;;;;5028795;28;20513;-50
2023/03/02 02:24:50;;;;;;;3.23;2.93;;;14.90;55.60;15.50;101374.00;;;;5029080;28;20183;-44
2023/03/02 02:27:16;;;;;;;3.30;3.00;;;14.80;55.60;15.50;101370.00;;;;5029269;28;20245;-44
2023/03/02 02:29:46;;;;;;;3.10;2.90;;;14.80;55.60;15.50;101378.00;;;;5030310;28;20753;-44
2023/03/02 02:32:26;;;;;;;2.97;2.77;;;14.80;55.60;15.50;101362.00;;;;5029014;28;20171;-44
2023/03/02 02:34:59;;;;;;;2.90;2.70;;;14.80;55.70;15.50;101377.00;;;;5028961;28;20206;-45
2023/03/02 02:37:32;;;;;;;3.13;2.87;;;14.80;55.70;15.50;101369.00;;;;5028965;28;20241;-44
2023/03/02 02:39:58;;;;;;;3.30;3.00;;;14.70;55.50;15.40;101367.00;;;;5028991;28;20653;-44
2023/03/02 02:42:31;;;;;;;3.20;2.90;;;14.70;55.50;15.40;101366.00;;;;5028763;28;20187;-44
2023/03/02 02:45:00;;;;;;;3.40;3.10;;;14.70;55.50;15.40;101362.00;;;;5028974;28;20693;-44
2023/03/02 02:47:25;;;;;;;3.20;2.90;;;14.70;55.60;15.40;101356.00;;;;5028573;28;20175;-45
2023/03/02 02:49:52;;;;;;;3.20;2.90;;;14.70;55.50;15.40;101361.00;;;;5028591;28;20501;-44
2023/03/02 02:52:21;;;;;;;3.00;2.80;;;14.70;56.20;15.40;101362.00;;;;5012070;28;20589;-44
2023/03/02 02:54:50;;;;;;;2.97;2.77;;;14.70;55.50;15.40;101318.00;;;;5028476;28;20228;-44
2023/03/02 02:57:16;;;;;;;3.00;2.70;;;14.70;55.70;15.30;101355.00;;;;5029681;28;20167;-44
2023/03/02 02:59:47;;;;;;;2.97;2.77;;;14.70;56.30;15.30;101362.00;;;;5012068;28;20194;-44
2023/03/02 03:02:20;;;;;;;3.13;2.83;;;14.60;55.60;15.30;101352.00;;;;5028319;28;20218;-44
2023/03/02 03:04:45;;;;;;;3.13;2.93;;;14.60;55.50;15.30;101357.00;;;;5028400;28;20170;-43
2023/03/02 03:07:20;;;;;;;3.07;2.87;;;14.60;55.60;15.20;101360.00;;;;5029362;28;20183;-44
2023/03/02 03:10:07;;;;;;;2.83;2.63;;;14.60;55.60;15.30;101356.00;;;;5028340;28;20562;-44
2023/03/02 03:12:33;;;;;;;2.70;2.50;;;14.50;55.50;15.30;101361.00;;;;5028164;28;20175;-43
2023/03/02 03:15:00;;;;;;;2.80;2.60;;;14.60;55.60;15.20;101350.00;;;;5028188;28;20202;-44
2023/03/02 03:17:26;;;;;;;3.00;2.80;;;14.50;55.70;15.20;101359.00;;;;5029401;28;20198;-44
2023/03/02 03:19:51;;;;;;;3.10;2.90;;;14.50;55.70;15.20;101352.00;;;;5029427;28;20654;-44
2023/03/02 03:22:17;;;;;;;3.00;2.80;;;14.50;55.80;15.20;101349.00;;;;5029173;28;20665;-45
2023/03/02 03:24:43;;;;;;;3.03;2.83;;;14.40;55.70;15.20;101365.00;;;;5029659;28;20178;-44
2023/03/02 03:27:11;;;;;;;2.73;2.53;;;14.40;55.70;15.20;101366.00;;;;5031285;28;20870;-44
2023/03/02 03:29:40;;;;;;;2.87;2.67;;;14.50;55.80;15.20;101345.00;;;;5031424;28;20515;-43
2023/03/02 03:32:05;;;;;;;2.90;2.70;;;14.40;55.80;15.20;101337.00;;;;5028571;28;20638;-43
2023/03/02 03:34:32;;;;;;;3.17;2.97;;;14.40;55.70;15.10;101341.00;;;;5029286;28;20181;-44
2023/03/02 03:37:00;;;;;;;2.80;2.60;;;14.40;55.70;15.10;101348.00;;;;5029356;28;20185;-44
2023/03/02 03:39:30;;;;;;;3.10;2.80;;;14.40;55.70;15.10;101340.00;;;;5029076;28;20186;-44
2023/03/02 03:41:55;;;;;;;3.00;2.80;;;14.40;55.80;15.10;101362.00;;;;5029264;28;20214;-46
2023/03/02 03:44:21;;;;;;;2.93;2.73;;;14.30;55.70;15.10;101351.00;;;;5028855;28;20179;-44
2023/03/02 03:46:47;;;;;;;2.80;2.60;;;14.30;55.70;15.10;101359.00;;;;5028612;28;20716;-43
2023/03/02 03:49:12;;;;;;;2.90;2.70;;;14.40;55.70;15.10;101360.00;;;;5028664;28;20254;-44
2023/03/02 03:51:38;;;;;;;2.90;2.70;;;14.30;55.70;15.00;101348.00;;;;5028784;28;20171;-45
2023/03/02 03:54:06;;;;;;;3.10;2.90;;;14.30;55.70;15.00;101345.00;;;;5028935;28;20209;-43
2023/03/02 03:56:35;;;;;;;2.80;2.60;;;14.30;55.70;15.00;101351.00;;;;5025499;28;20278;-44
2023/03/02 03:59:07;;;;;;;2.70;2.50;;;14.20;55.70;15.00;101345.00;;;;5023708;28;20263;-44
2023/03/02 04:01:33;;;;;;;3.00;2.80;;;14.20;55.70;15.00;101349.00;;;;5028492;28;20179;-44
2023/03/02 04:04:01;;;;;;;3.20;2.90;;;14.30;55.70;15.00;101344.00;;;;5028745;28;20226;-43
2023/03/02 04:06:26;;;;;;;3.03;2.80;;;14.20;55.70;15.00;101337.00;;;;5020109;28;20230;-44
2023/03/02 04:08:52;;;;;;;2.73;2.53;;;14.20;55.70;14.90;101345.00;;;;5028445;28;20612;-44
2023/03/02 04:11:18;;;;;;;3.07;2.60;;;14.30;55.70;14.90;101341.00;;;;5028165;28;20529;-43
2023/03/02 04:13:43;;;;;;;2.87;2.67;;;14.20;55.70;14.90;101351.00;;;;5028400;28;20171;-44
2023/03/02 04:16:09;;;;;;;3.00;2.80;;;14.20;55.60;14.90;101334.00;;;;5028136;28;20198;-44
2023/03/02 04:18:35;;;;;;;2.93;2.73;;;14.20;55.70;14.90;101341.00;;;;5028338;28;20167;-44
2023/03/02 04:21:00;;;;;;;2.90;2.70;;;14.20;55.70;14.90;101334.00;;;;5028333;28;20699;-43
2023/03/02 04:23:26;;;;;;;2.90;2.70;;;14.10;55.60;14.80;101347.00;;;;5028185;28;20362;-45
2023/03/02 04:25:52;;;;;;;3.10;2.80;;;14.10;55.70;14.80;101346.00;;;;5028154;28;20230;-44
2023/03/02 04:28:18;;;;;;;2.97;2.77;;;14.10;55.70;14.80;101343.00;;;;5028601;28;20178;-49
2023/03/02 04:30:43;;;;;;;2.90;2.70;;;14.10;55.90;14.80;101346.00;;;;5028468;28;20221;-43
2023/03/02 04:33:09;;;;;;;2.80;2.60;;;14.00;55.80;14.80;101344.00;;;;5028543;28;20253;-45
2023/03/02 04:35:35;;;;;;;2.97;2.70;;;14.00;56.20;14.80;101348.00;;;;5028444;28;20226;-44
2023/03/02 04:38:01;;;;;;;5.37;2.90;;;14.00;56.40;14.70;101352.00;;;;5028368;28;20183;-44
2023/03/02 04:40:27;;;;;;;4.23;2.60;;;14.00;56.30;14.70;101358.00;;;;5027766;28;20665;-44
2023/03/02 04:42:53;;;;;;;2.80;2.60;;;14.00;56.20;14.70;101356.00;;;;5028311;28;20179;-44
2023/03/02 04:45:19;;;;;;;5.37;2.93;;;14.00;56.10;14.70;101352.00;;;;5028042;28;20218;-44
2023/03/02 04:47:44;;;;;;;5.07;3.17;;;14.00;56.10;14.70;101345.00;;;;5029428;28;20178;-44
2023/03/02 04:50:11;;;;;;;4.13;2.70;;;14.00;56.20;14.70;101347.00;;;;5029183;28;20183;-43
2023/03/02 04:52:37;;;;;;;3.93;3.00;;;13.90;56.00;14.70;101343.00;;;;5027778;28;20170;-43
2023/03/02 04:55:03;;;;;;;4.10;2.47;;;13.90;56.00;14.60;101340.00;;;;5029106;28;20773;-44
2023/03/02 04:57:29;;;;;;;3.50;2.97;;;13.90;56.00;14.60;101338.00;;;;5029274;28;20262;-44
2023/03/02 04:59:55;;;;;;;4.57;2.90;;;13.90;55.90;14.60;101339.00;;;;5034325;28;20175;-45
2023/03/02 05:02:21;;;;;;;3.37;2.60;;;13.90;56.00;14.60;101351.00;;;;5032853;28;20183;-44
2023/03/02 05:04:46;;;;;;;6.77;2.97;;;13.90;56.00;14.60;101349.00;;;;5029172;28;20175;-44
2023/03/02 05:07:12;;;;;;;3.10;2.90;;;13.90;56.00;14.60;101350.00;;;;5029355;28;20389;-44
2023/03/02 05:09:38;;;;;;;3.10;2.80;;;13.90;55.90;14.60;101346.00;;;;5029097;28;20182;-45
2023/03/02 05:12:04;;;;;;;2.87;2.60;;;13.90;56.00;14.60;101347.00;;;;5031507;28;20179;-44
2023/03/02 05:14:29;;;;;;;2.90;2.70;;;13.80;55.80;14.60;101341.00;;;;5032957;28;20187;-44
2023/03/02 05:16:55;;;;;;;3.07;2.77;;;13.80;55.80;14.50;101330.00;;;;5032967;28;20651;-44
2023/03/02 05:19:21;;;;;;;2.80;2.60;;;13.80;55.80;14.50;101340.00;;;;5024423;28;20195;-45
2023/03/02 05:21:47;;;;;;;2.93;2.60;;;13.80;55.80;14.50;101328.00;;;;5030620;28;20183;-44
2023/03/02 05:24:12;;;;;;;2.87;2.63;;;13.80;55.80;14.50;101331.00;;;;5032234;28;20182;-44
2023/03/02 05:26:38;;;;;;;3.13;2.83;;;13.70;55.70;14.50;101331.00;;;;5031789;28;20214;-44
2023/03/02 05:29:04;;;;;;;2.80;2.60;;;13.80;55.80;14.50;101332.00;;;;5032174;28;20229;-44
2023/03/02 05:31:33;;;;;;;2.80;2.60;;;13.70;55.60;14.50;101329.00;;;;5031704;28;20562;-52
2023/03/02 05:34:00;;;;;;;3.10;2.70;;;13.70;55.60;14.40;101333.00;;;;5030932;28;20189;-43
2023/03/02 05:36:26;;;;;;;2.70;2.50;;;13.70;55.60;14.40;101343.00;;;;5031728;28;20234;-44
2023/03/02 05:38:51;;;;;;;2.80;2.60;;;13.70;55.70;14.40;101339.00;;;;5032569;28;20198;-44
2023/03/02 05:41:17;;;;;;;3.77;2.70;;;13.70;55.70;14.40;101346.00;;;;5031866;28;20183;-43
2023/03/02 05:43:43;;;;;;;3.00;2.70;;;13.70;55.70;14.40;101340.00;;;;5024118;28;20209;-44
2023/03/02 05:46:08;;;;;;;3.03;2.63;;;13.60;55.70;14.40;101340.00;;;;5031731;28;20213;-44
2023/03/02 05:48:34;;;;;;;3.10;2.80;;;13.60;55.40;14.40;101347.00;;;;5031569;28;20194;-43
2023/03/02 05:51:00;;;;;;;3.03;2.60;;;13.60;55.50;14.40;101338.00;;;;5029608;28;20221;-44
2023/03/02 05:53:26;;;;;;;3.27;2.97;;;13.60;55.40;14.30;101349.00;;;;5031659;28;20187;-44
2023/03/02 05:55:52;;;;;;;4.23;3.00;;;13.60;55.30;14.30;101333.00;;;;5030911;28;20199;-44
2023/03/02 05:58:18;;;;;;;3.90;3.50;;;13.60;55.30;14.30;101335.00;;;;5030727;28;20175;-44
2023/03/02 06:00:46;;;;;;;3.90;3.10;;;13.60;55.10;14.30;101333.00;;;;5032763;28;20206;-44
2023/03/02 06:03:11;;;;;;;3.80;3.50;;;13.60;55.10;14.30;101335.00;;;;5033199;28;20191;-44
2023/03/02 06:05:37;;;;;;;4.27;3.40;;;13.50;54.90;14.30;101338.00;;;;5030696;28;20269;-43
2023/03/02 06:08:03;;;;;;;4.00;3.60;;;13.50;54.80;14.20;101342.00;;;;5031650;28;20174;-44
2023/03/02 06:10:29;;;;;;;5.20;3.80;;;13.60;54.90;14.20;101345.00;;;;5030935;28;20190;-44
2023/03/02 06:12:55;;;;;;;6.93;3.70;;;13.50;54.80;14.20;101341.00;;;;5031720;28;20665;-44
2023/03/02 06:15:20;;;;;;;5.23;3.70;;;13.50;54.80;14.20;101343.00;;;;5030703;28;20222;-44
2023/03/02 06:17:46;;;;;;;5.30;3.70;;;13.50;55.50;14.20;101356.00;;;;5031066;28;20179;-44
2023/03/02 06:20:13;;;;;;;4.07;3.60;;;13.50;54.70;14.20;101350.00;;;;5032810;28;20528;-44
2023/03/02 06:22:43;;;;;;;4.50;4.10;;;13.40;54.60;14.10;101352.00;;;;5026437;28;20277;-44
2023/03/02 06:25:11;;;;;;;4.97;4.20;;;13.40;54.60;14.10;101346.00;;;;5033821;28;20654;-45
2023/03/02 06:27:38;;;;;;;4.40;4.00;;;13.40;54.50;14.10;101351.00;;;;5031584;28;20262;-44
2023/03/02 06:30:05;;;;;;;4.90;4.37;;;13.40;54.50;14.10;101356.00;;;;5031525;28;20189;-44
2023/03/02 06:32:33;;;;;;;5.37;4.10;;;13.40;54.50;14.10;101356.00;;;;5030342;28;20186;-44
2023/03/02 06:35:03;;;;;;;5.80;4.33;;;13.40;54.60;14.00;101357.00;;;;5030752;28;20257;-44
2023/03/02 06:37:28;;;;;;;5.63;4.30;;;13.30;54.50;14.00;101360.00;;;;5031179;28;20190;-45
2023/03/02 06:39:55;;;;;;;5.27;3.87;;;13.30;54.40;14.00;101342.00;;;;5029815;28;20183;-44
2023/03/02 06:42:22;;;;;;;5.30;4.00;;;13.40;54.60;14.00;101358.00;;;;5030374;28;20175;-43
2023/03/02 06:44:48;;;;;;;5.63;4.00;;;13.40;54.60;14.00;101364.00;;;;5031057;28;20565;-44
2023/03/02 06:47:14;;;;;;;5.07;3.50;;;13.30;54.60;14.00;101361.00;;;;5029522;28;20673;-44
2023/03/02 06:49:39;;;;;;;4.80;3.87;;;13.40;54.70;14.00;101361.00;;;;5030398;28;20186;-44
2023/03/02 06:52:06;;;;;;;4.13;3.70;;;13.40;54.80;14.00;101371.00;;;;5030097;28;20183;-45
2023/03/02 06:54:32;;;;;;;5.17;3.90;;;13.50;55.00;14.00;101380.00;;;;5030266;28;20182;-44
2023/03/02 06:56:58;;;;;;;4.33;3.70;;;13.50;55.00;14.10;101367.00;;;;5029914;28;20190;-44
2023/03/02 06:59:24;;;;;;;3.70;3.40;;;13.60;55.00;14.10;101373.00;;;;5030394;28;20191;-51
2023/03/02 07:01:50;;;;;;;3.73;3.43;;;13.60;55.10;14.20;101372.00;;;;5030021;28;20198;-44
2023/03/02 07:04:16;;;;;;;3.60;3.30;;;13.70;55.10;14.30;101368.00;;;;5031319;28;20649;-44
2023/03/02 07:06:42;;;;;;;3.80;3.50;;;13.80;55.20;14.30;101370.00;;;;5030823;28;20217;-44
2023/03/02 07:09:07;;;;;;;3.60;3.30;;;13.90;55.90;14.40;101375.00;;;;5022667;28;20182;-44
2023/03/02 07:11:33;;;;;;;4.00;3.40;;;14.00;55.40;14.50;101375.00;;;;5030033;28;20248;-44
2023/03/02 07:14:00;;;;;;;3.50;3.20;;;14.10;55.40;14.60;101376.00;;;;5030592;28;20714;-44
2023/03/02 07:16:25;;;;;;;3.50;3.20;;;14.20;55.50;14.70;101379.00;;;;5030628;28;20203;-45
2023/03/02 07:18:51;;;;;;;3.67;3.37;;;14.20;55.40;14.80;101372.00;;;;5028859;28;20183;-44
2023/03/02 07:21:17;;;;;;;3.70;3.40;;;14.40;55.50;14.90;101377.00;;;;5029864;28;20780;-44
2023/03/02 07:23:42;;;;;;;3.57;3.27;;;14.50;55.50;15.00;101377.00;;;;5030214;28;20262;-44
2023/03/02 07:26:08;;;;;;;3.50;3.20;;;14.50;55.50;15.10;101383.00;;;;5029698;28;20677;-44
2023/03/02 07:28:42;;;;;;;3.60;3.30;;;14.60;55.50;15.20;101387.00;;;;5030156;28;20179;-44
2023/03/02 07:31:08;;;;;;;3.60;3.30;;;14.70;56.20;15.30;101376.00;;;;5028464;28;20181;-44
2023/03/02 07:33:34;;;;;;;3.23;2.80;;;14.80;55.50;15.30;101369.00;;;;5028773;28;20171;-45
2023/03/02 07:36:00;;;;;;;3.40;3.10;;;14.80;55.50;15.40;101365.00;;;;5029516;28;20210;-43
2023/03/02 07:38:26;;;;;;;3.90;3.43;;;14.90;55.70;15.50;101377.00;;;;5029453;28;20187;-43
2023/03/02 07:40:52;;;;;;;3.80;3.33;;;15.00;55.70;15.60;101389.00;;;;5029445;28;20182;-44
2023/03/02 07:43:18;;;;;;;3.40;3.10;;;15.10;55.70;15.70;101370.00;;;;5029458;28;20187;-44
2023/03/02 07:45:44;;;;;;;3.20;2.90;;;15.20;55.70;15.70;101373.00;;;;5029213;28;20230;-45
2023/03/02 07:48:09;;;;;;;3.33;3.00;;;15.20;55.60;15.80;101371.00;;;;5028443;28;20425;-44
2023/03/02 07:50:35;;;;;;;3.37;3.07;;;15.30;55.70;15.90;101377.00;;;;5029117;28;20202;-44
2023/03/02 07:53:01;;;;;;;3.30;3.00;;;15.40;55.70;16.00;101382.00;;;;5029851;28;20214;-44
2023/03/02 07:55:27;;;;;;;3.33;3.03;;;15.40;55.70;16.00;101375.00;;;;5029094;28;20256;-44
2023/03/02 07:57:52;;;;;;;3.20;2.90;;;15.50;55.70;16.00;101368.00;;;;5029400;28;20560;-44
2023/03/02 08:00:19;;;;;;;3.20;2.90;;;15.50;55.70;16.10;101383.00;;;;5028631;28;20182;-44
2023/03/02 08:02:45;;;;;;;3.47;3.17;;;15.60;55.80;16.10;101372.00;;;;5028763;28;20201;-44
2023/03/02 08:05:10;;;;;;;3.63;3.33;;;15.60;55.70;16.20;101379.00;;;;5028467;28;20562;-44
2023/03/02 08:07:36;;;;;;;4.17;3.20;;;15.60;55.70;16.20;101379.00;;;;5029222;28;20178;-44
2023/03/02 08:10:03;;;;;;;3.30;3.00;;;15.70;55.80;16.30;101375.00;;;;5027896;28;20179;-46
2023/03/02 08:12:28;;;;;;;3.57;3.20;;;15.70;55.80;16.30;101375.00;;;;5027244;28;20183;-44
2023/03/02 08:14:54;;;;;;;3.30;3.00;;;15.70;55.80;16.30;101379.00;;;;5028724;28;20691;-44
2023/03/02 08:17:20;;;;;;;3.30;3.00;;;15.80;55.80;16.40;101382.00;;;;5028345;28;20183;-44
2023/03/02 08:19:46;;;;;;;3.90;3.00;;;15.80;55.80;16.40;101373.00;;;;5028521;28;20792;-44
2023/03/02 08:22:12;;;;;;;3.70;3.30;;;15.80;55.90;16.40;101380.00;;;;5028485;28;20201;-44
2023/03/02 08:24:40;;;;;;;3.00;2.80;;;15.80;55.90;16.40;101382.00;;;;5029118;28;20185;-45
2023/03/02 08:27:06;;;;;;;3.43;3.13;;;15.80;55.90;16.50;101384.00;;;;5026593;28;20697;-44
2023/03/02 08:29:32;;;;;;;3.27;2.97;;;15.80;55.90;16.50;101395.00;;;;5029139;28;20823;-44
2023/03/02 08:31:58;;;;;;;3.10;2.90;;;15.90;56.00;16.50;101379.00;;;;5030882;28;20286;-44
2023/03/02 08:34:25;;;;;;;2.87;2.67;;;15.90;56.00;16.30;101387.00;;;;5030503;28;20198;-44
2023/03/02 08:36:51;;;;;;;4.37;3.00;;;15.90;56.00;16.50;101386.00;;;;5028269;28;20202;-43
2023/03/02 08:39:17;;;;;;;3.27;2.97;;;15.90;56.20;16.60;101384.00;;;;5026039;28;20183;-44
2023/03/02 08:41:43;;;;;;;3.23;2.93;;;15.90;56.20;16.60;101381.00;;;;5028404;28;20688;-43
2023/03/02 08:44:08;;;;;;;3.30;3.00;;;15.90;56.20;16.60;101397.00;;;;5029266;28;20182;-44
2023/03/02 08:46:34;;;;;;;4.23;2.80;;;16.00;56.50;16.60;101371.00;;;;5032447;28;20207;-44
2023/03/02 08:49:00;;;;;;;4.43;3.10;;;16.00;56.60;16.60;101362.00;;;;5040780;28;20190;-44
2023/03/02 08:51:27;;;;;;;3.20;2.90;;;16.00;56.60;16.60;101364.00;;;;5033044;28;20233;-44
2023/03/02 08:53:54;;;;;;;3.43;3.13;;;16.00;56.70;16.60;101351.00;;;;5032349;28;20277;-44
2023/03/02 08:56:29;;;;;;;3.13;2.83;;;16.00;56.70;16.70;101365.00;;;;5034656;28;20703;-44
2023/03/02 08:58:59;;;;;;;4.33;2.97;;;16.10;56.80;16.70;101363.00;;;;5032422;28;20190;-45
2023/03/02 09:01:30;;;;;;;2.93;2.73;;;16.10;56.80;16.70;101346.00;;;;5032039;28;20190;-45
2023/03/02 09:03:58;;;;;;;4.80;2.80;;;16.10;56.80;16.70;101348.00;;;;5033291;28;20183;-45
2023/03/02 09:06:24;;;;;;;3.67;2.90;;;16.10;56.80;16.70;101360.00;;;;5032306;28;20209;-44
2023/03/02 09:08:50;;;;;;;3.87;3.07;;;16.10;56.80;16.50;101359.00;;;;5032310;28;20179;-45
2023/03/02 09:11:15;;;;;;;4.00;2.93;;;16.10;56.80;16.80;101352.00;;;;5032331;28;20186;-44
2023/03/02 09:13:41;;;;;;;4.60;2.90;;;16.10;56.70;16.80;101348.00;;;;5032644;28;20179;-45
2023/03/02 09:16:07;;;;;;;3.33;2.90;;;16.20;56.80;16.80;101352.00;;;;5032433;28;20257;-44
2023/03/02 09:18:33;;;;;;;3.27;2.70;;;16.20;56.80;16.80;101357.00;;;;5031300;28;20210;-44
2023/03/02 09:20:59;;;;;;;4.20;2.83;;;16.20;57.40;16.80;101343.00;;;;5032281;28;20801;-45
2023/03/02 09:23:25;;;;;;;3.07;2.77;;;16.20;56.80;16.80;101344.00;;;;5032459;28;20858;-47
2023/03/02 09:25:51;;;;;;;4.47;2.80;;;16.20;56.80;16.80;101346.00;;;;5032123;28;20246;-44
2023/03/02 09:28:17;;;;;;;4.30;2.60;;;16.30;57.00;16.80;101341.00;;;;5032411;28;20270;-45
2023/03/02 09:30:51;;;;;;;3.53;2.80;;;16.20;57.00;16.80;101330.00;;;;5030694;28;20250;-45
2023/03/02 09:33:17;;;;;;;18.50;3.27;;;16.20;57.30;16.80;101333.00;;;;5031833;28;20178;-45
2023/03/02 09:35:44;;;;;;;11.60;3.00;;;16.30;57.90;16.90;101335.00;;;;5032550;28;20618;-44
2023/03/02 09:38:14;;;;;;;4.10;2.70;;;16.20;57.90;16.90;101328.00;;;;5032935;28;20187;-44
2023/03/02 09:40:46;;;;;;;9.13;3.10;;;16.30;57.90;16.90;101320.00;;;;5033213;28;20186;-44
2023/03/02 09:43:52;;;;;;;8.37;3.30;;;16.30;58.30;16.90;101320.00;;;;5031274;28;20184;-45
2023/03/02 09:46:49;;;;;;;7.53;3.10;;;16.30;58.20;16.90;101337.00;;;;5015726;28;20222;-43
2023/03/02 09:49:45;;;;;;;6.30;2.80;;;16.30;58.30;16.90;101335.00;;;;5013837;28;20552;-44
2023/03/02 09:52:49;;;;;;;6.13;3.30;;;16.30;58.40;16.90;101327.00;;;;5030504;28;20202;-44
2023/03/02 09:55:21;;;;;;;7.77;3.10;;;16.30;58.40;16.90;101324.00;;;;5010104;28;20257;-44
2023/03/02 09:57:47;;;;;;;5.87;2.90;;;16.30;58.30;16.90;101318.00;;;;5010253;28;20184;-44
2023/03/02 10:00:22;;;;;;;5.47;2.87;;;16.30;58.30;16.90;101324.00;;;;5027264;28;20254;-44
2023/03/02 10:02:53;;;;;;;7.50;3.07;;;16.30;58.30;16.90;101311.00;;;;5021959;28;20665;-44
2023/03/02 10:05:33;;;;;;;5.07;2.87;;;16.30;58.20;16.90;101307.00;;;;5013083;28;20215;-43
2023/03/02 10:07:59;;;;;;;4.90;3.00;;;16.30;58.30;16.90;101314.00;;;;5030860;28;20711;-44
2023/03/02 10:11:00;;;;;;;6.93;3.13;;;16.20;58.30;16.90;101314.00;;;;5029949;28;20183;-44
2023/03/02 10:13:32;;;;;;;4.10;2.90;;;16.30;58.50;16.80;101314.00;;;;5011373;28;20214;-46
2023/03/02 10:16:11;;;;;;;4.00;2.90;;;16.20;58.40;16.80;101311.00;;;;5030428;28;20238;-44
2023/03/02 10:18:43;;;;;;;3.80;2.93;;;16.20;58.40;16.80;101313.00;;;;5030860;28;20202;-44
2023/03/02 10:21:38;;;;;;;5.47;2.90;;;16.20;58.30;16.80;101296.00;;;;5030567;28;20190;-43
2023/03/02 10:24:28;;;;;;;5.03;2.77;;;16.20;58.40;16.80;101308.00;;;;5030701;28;20568;-44
2023/03/02 10:26:58;;;;;;;3.00;2.67;;;16.10;58.40;16.80;101310.00;;;;5030359;28;20210;-44
2023/03/02 10:29:46;;;;;;;3.23;2.60;;;16.10;58.30;16.80;101304.00;;;;5030323;28;20233;-44
2023/03/02 10:32:19;;;;;;;3.83;2.77;;;16.10;58.30;16.80;101299.00;;;;5030631;28;20264;-44
2023/03/02 10:34:44;;;;;;;3.40;2.80;;;16.10;58.30;16.60;101301.00;;;;5035660;28;20183;-44
2023/03/02 10:37:27;;;;;;;3.60;2.37;;;16.10;58.30;16.70;101306.00;;;;5036294;28;20245;-44
2023/03/02 10:39:53;;;;;;;4.50;2.73;;;16.10;58.30;16.80;101295.00;;;;5029498;28;20179;-44
2023/03/02 10:42:36;;;;;;;3.27;2.77;;;16.10;58.30;16.70;101291.00;;;;5031786;28;20599;-44
2023/03/02 10:45:27;;;;;;;3.13;2.83;;;16.00;58.30;16.70;101290.00;;;;5030699;28;20202;-44
2023/03/02 10:48:04;;;;;;;4.87;2.80;;;16.00;58.40;16.70;101297.00;;;;5030384;28;20645;-46
2023/03/02 10:50:30;;;;;;;3.33;2.90;;;16.00;58.40;16.70;101289.00;;;;5030951;28;20237;-44
2023/03/02 10:52:55;;;;;;;2.93;2.60;;;16.00;58.30;16.70;101289.00;;;;5029959;28;20187;-43